sensor_id;sensor_type;location;lat;lon;timestamp;P1;durP1;ratioP1;P2;durP2;ratioP2
66384;SDS011;53426;55.872;37.462;2024-03-02T00:07:11;55.20;;;31.17;;
66384;SDS011;53426;55.872;37.462;2024-03-02T00:09:40;56.42;;;31.27;;
66384;SDS011;53426;55.872;37.462;2024-03-02T00:12:08;61.38;;;32.75;;
66384;SDS011;53426;55.872;37.462;2024-03-02T00:14:41;59.13;;;31.40;;
66384;SDS011;53426;55.872;37.462;2024-03-02T00:17:08;58.55;;;30.70;;
66384;SDS011;53426;55.872;37.462;2024-03-02T00:19:49;57.83;;;30.92;;
66384;SDS011;53426;55.872;37.462;2024-03-02T00:22:15;58.05;;;30.45;;
66384;SDS011;53426;55.872;37.462;2024-03-02T00:24:42;59.90;;;30.98;;
66384;SDS011;53426;55.872;37.462;2024-03-02T00:27:09;49.95;;;29.00;;
66384;SDS011;53426;55.872;37.462;2024-03-02T00:29:40;47.55;;;29.13;;
66384;SDS011;53426;55.872;37.462;2024-03-02T00:32:11;53.25;;;28.25;;
66384;SDS011;53426;55.872;37.462;2024-03-02T00:34:39;53.75;;;29.95;;
66384;SDS011;53426;55.872;37.462;2024-03-02T00:37:05;55.70;;;30.48;;
66384;SDS011;53426;55.872;37.462;2024-03-02T00:39:31;55.95;;;28.90;;
66384;SDS011;53426;55.872;37.462;2024-03-02T00:42:00;51.38;;;27.08;;
66384;SDS011;53426;55.872;37.462;2024-03-02T00:44:27;55.33;;;28.55;;
66384;SDS011;53426;55.872;37.462;2024-03-02T00:46:56;60.67;;;30.10;;
66384;SDS011;53426;55.872;37.462;2024-03-02T00:49:34;53.13;;;30.08;;
66384;SDS011;53426;55.872;37.462;2024-03-02T00:52:00;56.45;;;28.35;;
66384;SDS011;53426;55.872;37.462;2024-03-02T00:54:26;56.22;;;29.52;;
66384;SDS011;53426;55.872;37.462;2024-03-02T00:56:54;54.58;;;30.25;;
66384;SDS011;53426;55.872;37.462;2024-03-02T00:59:22;57.78;;;30.38;;
66384;SDS011;53426;55.872;37.462;2024-03-02T01:01:51;52.35;;;30.40;;
66384;SDS011;53426;55.872;37.462;2024-03-02T01:04:17;53.97;;;29.55;;
66384;SDS011;53426;55.872;37.462;2024-03-02T01:06:43;56.85;;;30.48;;
66384;SDS011;53426;55.872;37.462;2024-03-02T01:09:09;57.30;;;30.48;;
66384;SDS011;53426;55.872;37.462;2024-03-02T01:11:35;53.67;;;29.33;;
66384;SDS011;53426;55.872;37.462;2024-03-02T01:14:01;53.53;;;30.27;;
66384;SDS011;53426;55.872;37.462;2024-03-02T01:16:27;53.67;;;29.92;;
66384;SDS011;53426;55.872;37.462;2024-03-02T01:18:53;62.58;;;31.85;;
66384;SDS011;53426;55.872;37.462;2024-03-02T01:21:19;62.90;;;30.98;;
66384;SDS011;53426;55.872;37.462;2024-03-02T01:23:45;55.90;;;30.55;;
66384;SDS011;53426;55.872;37.462;2024-03-02T01:26:11;58.63;;;32.17;;
66384;SDS011;53426;55.872;37.462;2024-03-02T01:28:37;66.38;;;31.77;;
66384;SDS011;53426;55.872;37.462;2024-03-02T01:31:03;63.55;;;32.42;;
66384;SDS011;53426;55.872;37.462;2024-03-02T01:33:28;59.72;;;31.65;;
66384;SDS011;53426;55.872;37.462;2024-03-02T01:35:54;51.50;;;30.70;;
66384;SDS011;53426;55.872;37.462;2024-03-02T01:38:20;58.55;;;30.55;;
66384;SDS011;53426;55.872;37.462;2024-03-02T01:40:47;55.92;;;30.80;;
66384;SDS011;53426;55.872;37.462;2024-03-02T01:43:13;61.28;;;30.92;;
66384;SDS011;53426;55.872;37.462;2024-03-02T01:45:40;55.20;;;29.75;;
66384;SDS011;53426;55.872;37.462;2024-03-02T01:48:06;66.00;;;31.73;;
66384;SDS011;53426;55.872;37.462;2024-03-02T01:50:33;59.03;;;32.58;;
66384;SDS011;53426;55.872;37.462;2024-03-02T01:53:00;61.20;;;29.92;;
66384;SDS011;53426;55.872;37.462;2024-03-02T01:55:26;56.90;;;31.30;;
66384;SDS011;53426;55.872;37.462;2024-03-02T01:57:54;63.63;;;32.22;;
66384;SDS011;53426;55.872;37.462;2024-03-02T02:00:21;55.05;;;30.17;;
66384;SDS011;53426;55.872;37.462;2024-03-02T02:02:50;62.50;;;33.03;;
66384;SDS011;53426;55.872;37.462;2024-03-02T02:05:16;52.53;;;30.02;;
66384;SDS011;53426;55.872;37.462;2024-03-02T02:07:43;58.63;;;29.70;;
66384;SDS011;53426;55.872;37.462;2024-03-02T02:10:12;66.40;;;31.20;;
66384;SDS011;53426;55.872;37.462;2024-03-02T02:12:38;61.28;;;30.98;;
66384;SDS011;53426;55.872;37.462;2024-03-02T02:17:49;62.37;;;30.77;;
66384;SDS011;53426;55.872;37.462;2024-03-02T02:20:17;72.50;;;31.10;;
66384;SDS011;53426;55.872;37.462;2024-03-02T02:25:39;53.08;;;28.92;;
66384;SDS011;53426;55.872;37.462;2024-03-02T02:28:05;62.85;;;31.65;;
66384;SDS011;53426;55.872;37.462;2024-03-02T02:30:31;57.40;;;30.25;;
66384;SDS011;53426;55.872;37.462;2024-03-02T02:32:58;63.00;;;31.45;;
66384;SDS011;53426;55.872;37.462;2024-03-02T02:35:25;51.85;;;29.35;;
66384;SDS011;53426;55.872;37.462;2024-03-02T02:37:54;53.33;;;29.27;;
66384;SDS011;53426;55.872;37.462;2024-03-02T02:40:21;56.60;;;31.23;;
66384;SDS011;53426;55.872;37.462;2024-03-02T02:42:47;57.33;;;29.73;;
66384;SDS011;53426;55.872;37.462;2024-03-02T02:45:13;51.67;;;30.10;;
66384;SDS011;53426;55.872;37.462;2024-03-02T02:47:41;58.65;;;28.33;;
66384;SDS011;53426;55.872;37.462;2024-03-02T02:50:11;57.22;;;29.50;;
66384;SDS011;53426;55.872;37.462;2024-03-02T02:52:38;60.58;;;29.23;;
66384;SDS011;53426;55.872;37.462;2024-03-02T02:55:06;49.83;;;28.77;;
66384;SDS011;53426;55.872;37.462;2024-03-02T02:57:37;57.55;;;30.55;;
66384;SDS011;53426;55.872;37.462;2024-03-02T03:03:01;60.83;;;31.00;;
66384;SDS011;53426;55.872;37.462;2024-03-02T03:05:27;61.58;;;31.15;;
66384;SDS011;53426;55.872;37.462;2024-03-02T03:07:54;58.60;;;30.08;;
66384;SDS011;53426;55.872;37.462;2024-03-02T03:10:20;52.60;;;30.45;;
66384;SDS011;53426;55.872;37.462;2024-03-02T03:12:48;60.00;;;29.42;;
66384;SDS011;53426;55.872;37.462;2024-03-02T03:15:16;59.25;;;28.73;;
66384;SDS011;53426;55.872;37.462;2024-03-02T03:17:42;70.30;;;30.83;;
66384;SDS011;53426;55.872;37.462;2024-03-02T03:20:08;58.65;;;31.17;;
66384;SDS011;53426;55.872;37.462;2024-03-02T03:25:33;53.78;;;29.80;;
66384;SDS011;53426;55.872;37.462;2024-03-02T03:27:59;61.35;;;31.73;;
66384;SDS011;53426;55.872;37.462;2024-03-02T03:30:25;62.30;;;31.67;;
66384;SDS011;53426;55.872;37.462;2024-03-02T03:32:51;53.65;;;30.70;;
66384;SDS011;53426;55.872;37.462;2024-03-02T03:35:19;66.20;;;30.90;;
66384;SDS011;53426;55.872;37.462;2024-03-02T03:37:48;59.55;;;30.20;;
66384;SDS011;53426;55.872;37.462;2024-03-02T03:40:17;64.32;;;31.25;;
66384;SDS011;53426;55.872;37.462;2024-03-02T03:42:44;57.67;;;30.13;;
66384;SDS011;53426;55.872;37.462;2024-03-02T03:45:10;52.65;;;30.90;;
66384;SDS011;53426;55.872;37.462;2024-03-02T03:47:36;60.53;;;30.30;;
66384;SDS011;53426;55.872;37.462;2024-03-02T03:50:02;56.92;;;30.58;;
66384;SDS011;53426;55.872;37.462;2024-03-02T03:52:32;53.85;;;31.38;;
66384;SDS011;53426;55.872;37.462;2024-03-02T03:55:00;58.47;;;30.33;;
66384;SDS011;53426;55.872;37.462;2024-03-02T03:57:26;52.60;;;29.58;;
66384;SDS011;53426;55.872;37.462;2024-03-02T03:59:53;53.75;;;29.98;;
66384;SDS011;53426;55.872;37.462;2024-03-02T04:02:19;54.95;;;30.10;;
66384;SDS011;53426;55.872;37.462;2024-03-02T04:04:45;58.17;;;28.77;;
66384;SDS011;53426;55.872;37.462;2024-03-02T04:10:27;59.90;;;31.50;;
66384;SDS011;53426;55.872;37.462;2024-03-02T04:12:53;62.88;;;32.88;;
66384;SDS011;53426;55.872;37.462;2024-03-02T04:15:19;63.50;;;32.75;;
66384;SDS011;53426;55.872;37.462;2024-03-02T04:17:45;60.70;;;32.45;;
66384;SDS011;53426;55.872;37.462;2024-03-02T04:20:23;60.17;;;30.30;;
66384;SDS011;53426;55.872;37.462;2024-03-02T04:25:41;55.65;;;31.33;;
66384;SDS011;53426;55.872;37.462;2024-03-02T04:28:06;68.30;;;33.08;;
66384;SDS011;53426;55.872;37.462;2024-03-02T04:30:32;61.60;;;33.20;;
66384;SDS011;53426;55.872;37.462;2024-03-02T04:32:59;61.05;;;32.25;;
66384;SDS011;53426;55.872;37.462;2024-03-02T04:35:31;56.47;;;32.97;;
66384;SDS011;53426;55.872;37.462;2024-03-02T04:37:57;68.93;;;35.22;;
66384;SDS011;53426;55.872;37.462;2024-03-02T04:40:23;62.65;;;30.65;;
66384;SDS011;53426;55.872;37.462;2024-03-02T04:42:48;62.72;;;32.85;;
66384;SDS011;53426;55.872;37.462;2024-03-02T04:45:14;60.50;;;33.67;;
66384;SDS011;53426;55.872;37.462;2024-03-02T04:47:40;62.00;;;34.95;;
66384;SDS011;53426;55.872;37.462;2024-03-02T04:50:06;73.25;;;35.47;;
66384;SDS011;53426;55.872;37.462;2024-03-02T04:52:33;59.47;;;34.28;;
66384;SDS011;53426;55.872;37.462;2024-03-02T04:54:59;68.25;;;34.63;;
66384;SDS011;53426;55.872;37.462;2024-03-02T04:57:44;74.75;;;39.55;;
66384;SDS011;53426;55.872;37.462;2024-03-02T05:00:11;70.95;;;37.20;;
66384;SDS011;53426;55.872;37.462;2024-03-02T05:02:39;76.38;;;38.90;;
66384;SDS011;53426;55.872;37.462;2024-03-02T05:05:06;80.90;;;36.85;;
66384;SDS011;53426;55.872;37.462;2024-03-02T05:07:33;76.90;;;39.38;;
66384;SDS011;53426;55.872;37.462;2024-03-02T05:10:19;81.70;;;41.03;;
66384;SDS011;53426;55.872;37.462;2024-03-02T05:12:46;76.68;;;40.72;;
66384;SDS011;53426;55.872;37.462;2024-03-02T05:15:24;74.50;;;38.97;;
66384;SDS011;53426;55.872;37.462;2024-03-02T05:17:51;74.93;;;37.42;;
66384;SDS011;53426;55.872;37.462;2024-03-02T05:20:17;70.57;;;36.88;;
66384;SDS011;53426;55.872;37.462;2024-03-02T05:22:43;78.03;;;39.67;;
66384;SDS011;53426;55.872;37.462;2024-03-02T05:25:09;93.43;;;39.97;;
66384;SDS011;53426;55.872;37.462;2024-03-02T05:27:37;80.63;;;41.75;;
66384;SDS011;53426;55.872;37.462;2024-03-02T05:30:06;67.63;;;37.92;;
66384;SDS011;53426;55.872;37.462;2024-03-02T05:32:54;77.30;;;40.90;;
66384;SDS011;53426;55.872;37.462;2024-03-02T05:35:19;79.30;;;39.15;;
66384;SDS011;53426;55.872;37.462;2024-03-02T05:37:45;73.93;;;38.13;;
66384;SDS011;53426;55.872;37.462;2024-03-02T05:40:11;70.38;;;38.28;;
66384;SDS011;53426;55.872;37.462;2024-03-02T05:42:38;73.78;;;39.55;;
66384;SDS011;53426;55.872;37.462;2024-03-02T05:45:06;74.10;;;37.58;;
66384;SDS011;53426;55.872;37.462;2024-03-02T05:47:32;65.45;;;37.65;;
66384;SDS011;53426;55.872;37.462;2024-03-02T05:49:58;62.47;;;36.03;;
66384;SDS011;53426;55.872;37.462;2024-03-02T05:52:24;66.50;;;36.30;;
66384;SDS011;53426;55.872;37.462;2024-03-02T05:54:50;67.47;;;35.22;;
66384;SDS011;53426;55.872;37.462;2024-03-02T05:57:22;55.60;;;35.03;;
66384;SDS011;53426;55.872;37.462;2024-03-02T06:00:06;63.35;;;34.42;;
66384;SDS011;53426;55.872;37.462;2024-03-02T06:02:41;67.45;;;35.53;;
66384;SDS011;53426;55.872;37.462;2024-03-02T06:05:07;57.42;;;33.78;;
66384;SDS011;53426;55.872;37.462;2024-03-02T06:07:34;61.22;;;33.58;;
66384;SDS011;53426;55.872;37.462;2024-03-02T06:10:01;63.00;;;34.42;;
66384;SDS011;53426;55.872;37.462;2024-03-02T06:15:21;63.08;;;33.28;;
66384;SDS011;53426;55.872;37.462;2024-03-02T06:17:47;63.47;;;31.58;;
66384;SDS011;53426;55.872;37.462;2024-03-02T06:20:13;60.53;;;31.67;;
66384;SDS011;53426;55.872;37.462;2024-03-02T06:25:51;58.10;;;31.75;;
66384;SDS011;53426;55.872;37.462;2024-03-02T06:28:16;63.78;;;32.08;;
66384;SDS011;53426;55.872;37.462;2024-03-02T06:30:42;57.70;;;33.53;;
66384;SDS011;53426;55.872;37.462;2024-03-02T06:33:09;61.70;;;32.22;;
66384;SDS011;53426;55.872;37.462;2024-03-02T06:35:35;59.60;;;33.92;;
66384;SDS011;53426;55.872;37.462;2024-03-02T06:38:01;60.70;;;34.40;;
66384;SDS011;53426;55.872;37.462;2024-03-02T06:40:27;60.65;;;33.28;;
66384;SDS011;53426;55.872;37.462;2024-03-02T06:42:54;59.13;;;33.92;;
66384;SDS011;53426;55.872;37.462;2024-03-02T06:46:48;60.65;;;34.00;;
66384;SDS011;53426;55.872;37.462;2024-03-02T06:49:14;73.47;;;34.95;;
66384;SDS011;53426;55.872;37.462;2024-03-02T06:51:44;55.70;;;33.45;;
66384;SDS011;53426;55.872;37.462;2024-03-02T06:54:21;58.42;;;33.53;;
66384;SDS011;53426;55.872;37.462;2024-03-02T06:56:47;64.35;;;33.05;;
66384;SDS011;53426;55.872;37.462;2024-03-02T06:59:12;67.50;;;34.80;;
66384;SDS011;53426;55.872;37.462;2024-03-02T07:01:39;66.20;;;34.35;;
66384;SDS011;53426;55.872;37.462;2024-03-02T07:04:05;56.97;;;34.00;;
66384;SDS011;53426;55.872;37.462;2024-03-02T07:06:52;52.30;;;32.22;;
66384;SDS011;53426;55.872;37.462;2024-03-02T07:13:15;63.42;;;32.72;;
66384;SDS011;53426;55.872;37.462;2024-03-02T07:15:41;58.05;;;34.00;;
66384;SDS011;53426;55.872;37.462;2024-03-02T07:18:25;64.20;;;35.20;;
66384;SDS011;53426;55.872;37.462;2024-03-02T07:21:21;64.32;;;34.47;;
66384;SDS011;53426;55.872;37.462;2024-03-02T07:24:07;61.15;;;33.28;;
66384;SDS011;53426;55.872;37.462;2024-03-02T07:26:36;54.35;;;32.42;;
66384;SDS011;53426;55.872;37.462;2024-03-02T07:29:02;66.50;;;34.45;;
66384;SDS011;53426;55.872;37.462;2024-03-02T07:34:36;67.35;;;34.60;;
66384;SDS011;53426;55.872;37.462;2024-03-02T07:37:04;62.55;;;37.38;;
66384;SDS011;53426;55.872;37.462;2024-03-02T07:39:41;60.28;;;35.88;;
66384;SDS011;53426;55.872;37.462;2024-03-02T07:42:08;72.15;;;37.75;;
66384;SDS011;53426;55.872;37.462;2024-03-02T07:44:39;75.47;;;39.10;;
66384;SDS011;53426;55.872;37.462;2024-03-02T07:47:13;71.90;;;36.92;;
66384;SDS011;53426;55.872;37.462;2024-03-02T07:49:44;77.53;;;36.90;;
66384;SDS011;53426;55.872;37.462;2024-03-02T07:52:13;67.72;;;36.60;;
66384;SDS011;53426;55.872;37.462;2024-03-02T07:54:40;67.00;;;36.78;;
66384;SDS011;53426;55.872;37.462;2024-03-02T07:57:09;66.00;;;38.53;;
66384;SDS011;53426;55.872;37.462;2024-03-02T07:59:36;67.50;;;34.83;;
66384;SDS011;53426;55.872;37.462;2024-03-02T08:02:03;69.05;;;39.15;;
66384;SDS011;53426;55.872;37.462;2024-03-02T08:04:35;74.68;;;39.60;;
66384;SDS011;53426;55.872;37.462;2024-03-02T08:07:02;75.35;;;38.92;;
66384;SDS011;53426;55.872;37.462;2024-03-02T08:09:31;69.25;;;36.92;;
66384;SDS011;53426;55.872;37.462;2024-03-02T08:11:58;64.28;;;35.03;;
66384;SDS011;53426;55.872;37.462;2024-03-02T08:14:25;73.55;;;35.90;;
66384;SDS011;53426;55.872;37.462;2024-03-02T08:16:56;63.63;;;36.75;;
66384;SDS011;53426;55.872;37.462;2024-03-02T08:19:26;74.07;;;37.08;;
66384;SDS011;53426;55.872;37.462;2024-03-02T08:21:52;67.70;;;36.90;;
66384;SDS011;53426;55.872;37.462;2024-03-02T08:24:20;71.50;;;37.45;;
66384;SDS011;53426;55.872;37.462;2024-03-02T08:26:46;70.63;;;36.60;;
66384;SDS011;53426;55.872;37.462;2024-03-02T08:29:12;67.03;;;37.10;;
66384;SDS011;53426;55.872;37.462;2024-03-02T08:31:38;65.10;;;34.42;;
66384;SDS011;53426;55.872;37.462;2024-03-02T08:34:11;64.68;;;36.00;;
66384;SDS011;53426;55.872;37.462;2024-03-02T08:36:41;62.28;;;36.00;;
66384;SDS011;53426;55.872;37.462;2024-03-02T08:39:07;62.75;;;34.50;;
66384;SDS011;53426;55.872;37.462;2024-03-02T08:41:49;62.13;;;34.50;;
66384;SDS011;53426;55.872;37.462;2024-03-02T08:44:16;62.10;;;30.98;;
66384;SDS011;53426;55.872;37.462;2024-03-02T08:46:42;65.63;;;32.65;;
66384;SDS011;53426;55.872;37.462;2024-03-02T08:49:09;58.65;;;32.45;;
66384;SDS011;53426;55.872;37.462;2024-03-02T08:51:36;60.10;;;31.50;;
66384;SDS011;53426;55.872;37.462;2024-03-02T08:56:53;62.85;;;32.90;;
66384;SDS011;53426;55.872;37.462;2024-03-02T08:59:19;51.63;;;31.40;;
66384;SDS011;53426;55.872;37.462;2024-03-02T09:01:46;49.92;;;30.33;;
66384;SDS011;53426;55.872;37.462;2024-03-02T09:04:11;53.22;;;30.90;;
66384;SDS011;53426;55.872;37.462;2024-03-02T09:06:59;51.10;;;29.38;;
66384;SDS011;53426;55.872;37.462;2024-03-02T09:09:25;55.00;;;29.85;;
66384;SDS011;53426;55.872;37.462;2024-03-02T09:12:05;51.97;;;30.00;;
66384;SDS011;53426;55.872;37.462;2024-03-02T09:14:32;53.45;;;30.25;;
66384;SDS011;53426;55.872;37.462;2024-03-02T09:16:58;57.05;;;30.92;;
66384;SDS011;53426;55.872;37.462;2024-03-02T09:19:26;54.55;;;32.35;;
66384;SDS011;53426;55.872;37.462;2024-03-02T09:21:52;52.25;;;29.75;;
66384;SDS011;53426;55.872;37.462;2024-03-02T09:24:21;51.00;;;30.45;;
66384;SDS011;53426;55.872;37.462;2024-03-02T09:26:47;50.63;;;28.30;;
66384;SDS011;53426;55.872;37.462;2024-03-02T09:29:13;51.17;;;31.20;;
66384;SDS011;53426;55.872;37.462;2024-03-02T09:31:43;60.28;;;30.17;;
66384;SDS011;53426;55.872;37.462;2024-03-02T09:34:12;51.38;;;29.67;;
66384;SDS011;53426;55.872;37.462;2024-03-02T09:39:39;48.28;;;28.33;;
66384;SDS011;53426;55.872;37.462;2024-03-02T09:42:08;45.95;;;28.48;;
66384;SDS011;53426;55.872;37.462;2024-03-02T09:44:36;42.78;;;26.38;;
66384;SDS011;53426;55.872;37.462;2024-03-02T09:53:33;42.15;;;25.40;;
66384;SDS011;53426;55.872;37.462;2024-03-02T09:56:09;50.05;;;27.52;;
66384;SDS011;53426;55.872;37.462;2024-03-02T09:58:35;47.83;;;28.55;;
66384;SDS011;53426;55.872;37.462;2024-03-02T10:01:05;51.83;;;28.60;;
66384;SDS011;53426;55.872;37.462;2024-03-02T10:03:35;49.55;;;29.92;;
66384;SDS011;53426;55.872;37.462;2024-03-02T10:06:18;47.97;;;28.33;;
66384;SDS011;53426;55.872;37.462;2024-03-02T10:08:45;50.00;;;29.65;;
66384;SDS011;53426;55.872;37.462;2024-03-02T10:11:15;54.05;;;29.85;;
66384;SDS011;53426;55.872;37.462;2024-03-02T10:16:43;59.53;;;31.27;;
66384;SDS011;53426;55.872;37.462;2024-03-02T10:21:59;49.58;;;29.77;;
66384;SDS011;53426;55.872;37.462;2024-03-02T10:24:34;49.50;;;29.73;;
66384;SDS011;53426;55.872;37.462;2024-03-02T10:27:16;57.13;;;30.55;;
66384;SDS011;53426;55.872;37.462;2024-03-02T10:29:46;50.85;;;28.85;;
66384;SDS011;53426;55.872;37.462;2024-03-02T10:32:14;48.92;;;29.70;;
66384;SDS011;53426;55.872;37.462;2024-03-02T10:34:43;49.20;;;28.58;;
66384;SDS011;53426;55.872;37.462;2024-03-02T10:37:10;51.03;;;29.17;;
66384;SDS011;53426;55.872;37.462;2024-03-02T10:39:58;55.72;;;31.90;;
66384;SDS011;53426;55.872;37.462;2024-03-02T10:42:32;55.22;;;32.38;;
66384;SDS011;53426;55.872;37.462;2024-03-02T10:45:02;49.03;;;29.67;;
66384;SDS011;53426;55.872;37.462;2024-03-02T10:47:28;53.88;;;29.63;;
66384;SDS011;53426;55.872;37.462;2024-03-02T10:49:56;52.90;;;30.30;;
66384;SDS011;53426;55.872;37.462;2024-03-02T10:52:24;46.67;;;29.10;;
66384;SDS011;53426;55.872;37.462;2024-03-02T10:54:50;53.15;;;30.20;;
66384;SDS011;53426;55.872;37.462;2024-03-02T11:04:53;47.00;;;28.52;;
66384;SDS011;53426;55.872;37.462;2024-03-02T11:07:21;52.50;;;30.23;;
66384;SDS011;53426;55.872;37.462;2024-03-02T11:10:13;47.72;;;29.23;;
66384;SDS011;53426;55.872;37.462;2024-03-02T11:15:37;44.80;;;29.52;;
66384;SDS011;53426;55.872;37.462;2024-03-02T11:18:06;50.75;;;29.50;;
66384;SDS011;53426;55.872;37.462;2024-03-02T11:20:38;57.72;;;31.67;;
66384;SDS011;53426;55.872;37.462;2024-03-02T11:23:06;54.13;;;31.02;;
66384;SDS011;53426;55.872;37.462;2024-03-02T11:25:34;49.42;;;30.38;;
66384;SDS011;53426;55.872;37.462;2024-03-02T11:28:01;48.55;;;29.98;;
66384;SDS011;53426;55.872;37.462;2024-03-02T11:32:58;52.20;;;30.58;;
66384;SDS011;53426;55.872;37.462;2024-03-02T11:35:28;59.30;;;30.63;;
66384;SDS011;53426;55.872;37.462;2024-03-02T11:37:54;63.30;;;31.08;;
66384;SDS011;53426;55.872;37.462;2024-03-02T11:40:27;47.95;;;28.95;;
66384;SDS011;53426;55.872;37.462;2024-03-02T11:43:04;52.00;;;28.40;;
66384;SDS011;53426;55.872;37.462;2024-03-02T11:45:30;68.88;;;30.40;;
66384;SDS011;53426;55.872;37.462;2024-03-02T11:47:59;55.22;;;29.90;;
66384;SDS011;53426;55.872;37.462;2024-03-02T11:53:08;47.97;;;28.75;;
66384;SDS011;53426;55.872;37.462;2024-03-02T11:55:36;51.35;;;30.20;;
66384;SDS011;53426;55.872;37.462;2024-03-02T11:58:03;51.83;;;28.90;;
66384;SDS011;53426;55.872;37.462;2024-03-02T12:00:33;54.17;;;30.88;;
66384;SDS011;53426;55.872;37.462;2024-03-02T12:03:01;66.60;;;30.88;;
66384;SDS011;53426;55.872;37.462;2024-03-02T12:05:31;63.05;;;31.77;;
66384;SDS011;53426;55.872;37.462;2024-03-02T12:07:58;55.85;;;30.77;;
66384;SDS011;53426;55.872;37.462;2024-03-02T12:10:34;52.03;;;30.75;;
66384;SDS011;53426;55.872;37.462;2024-03-02T12:13:04;56.15;;;31.10;;
66384;SDS011;53426;55.872;37.462;2024-03-02T12:15:33;48.72;;;29.40;;
66384;SDS011;53426;55.872;37.462;2024-03-02T12:18:26;44.53;;;26.25;;
66384;SDS011;53426;55.872;37.462;2024-03-02T12:23:44;59.78;;;27.42;;
66384;SDS011;53426;55.872;37.462;2024-03-02T12:26:10;57.33;;;30.25;;
66384;SDS011;53426;55.872;37.462;2024-03-02T12:38:37;41.60;;;24.75;;
66384;SDS011;53426;55.872;37.462;2024-03-02T12:49:10;56.42;;;28.77;;
66384;SDS011;53426;55.872;37.462;2024-03-02T12:56:03;50.15;;;28.63;;
66384;SDS011;53426;55.872;37.462;2024-03-02T12:58:30;46.20;;;27.70;;
66384;SDS011;53426;55.872;37.462;2024-03-02T13:01:06;46.35;;;28.52;;
66384;SDS011;53426;55.872;37.462;2024-03-02T13:07:07;52.42;;;26.77;;
66384;SDS011;53426;55.872;37.462;2024-03-02T13:12:08;46.43;;;25.77;;
66384;SDS011;53426;55.872;37.462;2024-03-02T13:14:42;44.83;;;27.83;;
66384;SDS011;53426;55.872;37.462;2024-03-02T13:17:09;42.42;;;24.88;;
66384;SDS011;53426;55.872;37.462;2024-03-02T13:19:35;53.60;;;28.45;;
66384;SDS011;53426;55.872;37.462;2024-03-02T13:22:01;51.55;;;27.25;;
66384;SDS011;53426;55.872;37.462;2024-03-02T13:24:29;46.03;;;26.50;;
66384;SDS011;53426;55.872;37.462;2024-03-02T13:26:57;42.70;;;26.30;;
66384;SDS011;53426;55.872;37.462;2024-03-02T13:29:23;45.20;;;27.73;;
66384;SDS011;53426;55.872;37.462;2024-03-02T13:37:29;50.15;;;26.02;;
66384;SDS011;53426;55.872;37.462;2024-03-02T13:42:54;44.03;;;25.13;;
66384;SDS011;53426;55.872;37.462;2024-03-02T13:45:21;46.60;;;24.92;;
66384;SDS011;53426;55.872;37.462;2024-03-02T13:48:22;39.35;;;24.90;;
66384;SDS011;53426;55.872;37.462;2024-03-02T13:50:47;39.83;;;24.17;;
66384;SDS011;53426;55.872;37.462;2024-03-02T13:53:13;44.28;;;26.33;;
66384;SDS011;53426;55.872;37.462;2024-03-02T13:55:48;40.47;;;25.40;;
66384;SDS011;53426;55.872;37.462;2024-03-02T13:58:14;47.13;;;25.58;;
66384;SDS011;53426;55.872;37.462;2024-03-02T14:04:23;45.95;;;23.48;;
66384;SDS011;53426;55.872;37.462;2024-03-02T14:11:42;35.33;;;21.52;;
66384;SDS011;53426;55.872;37.462;2024-03-02T14:14:08;37.55;;;22.83;;
66384;SDS011;53426;55.872;37.462;2024-03-02T14:16:34;38.65;;;22.67;;
66384;SDS011;53426;55.872;37.462;2024-03-02T14:19:03;36.55;;;21.92;;
66384;SDS011;53426;55.872;37.462;2024-03-02T14:21:35;40.75;;;20.98;;
66384;SDS011;53426;55.872;37.462;2024-03-02T14:24:04;46.42;;;23.95;;
66384;SDS011;53426;55.872;37.462;2024-03-02T14:26:34;31.73;;;20.45;;
66384;SDS011;53426;55.872;37.462;2024-03-02T14:29:06;33.38;;;21.70;;
66384;SDS011;53426;55.872;37.462;2024-03-02T14:37:39;37.05;;;22.80;;
66384;SDS011;53426;55.872;37.462;2024-03-02T14:46:15;39.77;;;23.90;;
66384;SDS011;53426;55.872;37.462;2024-03-02T14:48:43;44.00;;;24.70;;
66384;SDS011;53426;55.872;37.462;2024-03-02T15:00:51;42.65;;;25.20;;
66384;SDS011;53426;55.872;37.462;2024-03-02T15:03:21;46.88;;;25.20;;
66384;SDS011;53426;55.872;37.462;2024-03-02T15:05:48;43.35;;;26.08;;
66384;SDS011;53426;55.872;37.462;2024-03-02T15:11:09;43.53;;;25.30;;
66384;SDS011;53426;55.872;37.462;2024-03-02T15:13:55;43.40;;;25.30;;
66384;SDS011;53426;55.872;37.462;2024-03-02T15:19:35;41.65;;;23.95;;
66384;SDS011;53426;55.872;37.462;2024-03-02T15:22:01;44.50;;;23.92;;
66384;SDS011;53426;55.872;37.462;2024-03-02T15:24:39;41.55;;;24.98;;
66384;SDS011;53426;55.872;37.462;2024-03-02T15:27:31;41.03;;;25.23;;
66384;SDS011;53426;55.872;37.462;2024-03-02T15:31:00;53.42;;;27.20;;
66384;SDS011;53426;55.872;37.462;2024-03-02T15:36:24;50.38;;;26.42;;
66384;SDS011;53426;55.872;37.462;2024-03-02T15:42:21;43.40;;;24.73;;
66384;SDS011;53426;55.872;37.462;2024-03-02T15:44:50;42.33;;;25.27;;
66384;SDS011;53426;55.872;37.462;2024-03-02T15:47:19;42.90;;;25.23;;
66384;SDS011;53426;55.872;37.462;2024-03-02T15:49:45;49.45;;;26.00;;
66384;SDS011;53426;55.872;37.462;2024-03-02T15:52:11;48.88;;;24.38;;
66384;SDS011;53426;55.872;37.462;2024-03-02T15:54:50;49.25;;;26.38;;
66384;SDS011;53426;55.872;37.462;2024-03-02T15:57:16;47.15;;;27.48;;
66384;SDS011;53426;55.872;37.462;2024-03-02T15:59:45;45.42;;;25.10;;
66384;SDS011;53426;55.872;37.462;2024-03-02T16:02:12;46.70;;;26.80;;
66384;SDS011;53426;55.872;37.462;2024-03-02T16:04:39;44.78;;;28.52;;
66384;SDS011;53426;55.872;37.462;2024-03-02T16:11:48;50.55;;;26.83;;
66384;SDS011;53426;55.872;37.462;2024-03-02T16:14:17;39.90;;;26.20;;
66384;SDS011;53426;55.872;37.462;2024-03-02T16:16:44;47.17;;;26.52;;
66384;SDS011;53426;55.872;37.462;2024-03-02T16:19:11;45.67;;;21.88;;
66384;SDS011;53426;55.872;37.462;2024-03-02T16:21:44;49.42;;;27.08;;
66384;SDS011;53426;55.872;37.462;2024-03-02T16:24:11;42.42;;;26.35;;
66384;SDS011;53426;55.872;37.462;2024-03-02T16:26:37;49.60;;;27.73;;
66384;SDS011;53426;55.872;37.462;2024-03-02T16:29:04;45.78;;;26.35;;
66384;SDS011;53426;55.872;37.462;2024-03-02T16:31:30;46.40;;;29.15;;
66384;SDS011;53426;55.872;37.462;2024-03-02T16:38:37;46.25;;;27.60;;
66384;SDS011;53426;55.872;37.462;2024-03-02T16:49:07;46.08;;;25.75;;
66384;SDS011;53426;55.872;37.462;2024-03-02T16:51:40;41.65;;;27.67;;
66384;SDS011;53426;55.872;37.462;2024-03-02T16:54:10;38.13;;;23.10;;
66384;SDS011;53426;55.872;37.462;2024-03-02T16:56:42;42.65;;;26.17;;
66384;SDS011;53426;55.872;37.462;2024-03-02T16:59:15;48.90;;;27.35;;
66384;SDS011;53426;55.872;37.462;2024-03-02T17:07:37;42.92;;;25.65;;
66384;SDS011;53426;55.872;37.462;2024-03-02T17:19:51;50.70;;;25.83;;
66384;SDS011;53426;55.872;37.462;2024-03-02T17:22:24;44.25;;;26.92;;
66384;SDS011;53426;55.872;37.462;2024-03-02T17:24:57;43.03;;;26.98;;
66384;SDS011;53426;55.872;37.462;2024-03-02T17:27:28;41.17;;;24.92;;